KOWB/OWB METAR and TAF weather

Enter ICAO airport designator
Station Type Date Time Source
KOWB METAR 2022/06/28 23:56 UTC NOAA

KOWB 282356Z 36005KT 10SM CLR 26/08 A3017 RMK AO2 SLP215 T02610083 10267 20244 56012


Station Type Date Time Source
KOWB Decoded METAR 2022/06/28 23:56 UTC NOAA

Owensboro, Owensboro-Daviess County Airport, KY, United States (KOWB) 37-44-24N 087-10-00W
Jun 28, 2022 - 07:56 PM EDT / 2022.06.28 2356 UTC
Wind: from the N (360 degrees) at 6 MPH (5 KT):0
Visibility: 10 mile(s):0
Sky conditions: clear
Temperature: 79.0 F (26.1 C)
Dew Point: 46.9 F (8.3 C)
Relative Humidity: 32%
Pressure (altimeter): 30.17 in. Hg (1021 hPa)
Pressure tendency: 0.04 inches (1.2 hPa) lower than three hours ago
ob: KOWB 282356Z 36005KT 10SM CLR 26/08 A3017 RMK AO2 SLP215 T02610083 10267 20244 56012
cycle: 0

Station Type Date Time Source
KOWB TAF 2022/06/28 18:27 UTC NOAA

TAF KOWB 281723Z 2818/2918 04005KT P6SM SCT250

Example: see airport list